createdAt,value
2019-04-12T00:00:22.834Z,61.62
2019-04-12T00:02:52.114Z,61.58
2019-04-12T00:05:21.357Z,61.48
2019-04-12T00:07:50.592Z,61.48
2019-04-12T00:10:19.851Z,61.61
2019-04-12T00:12:49.046Z,61.61
2019-04-12T00:15:18.246Z,61.94
2019-04-12T00:17:47.489Z,61.94
2019-04-12T00:20:16.690Z,61.80
2019-04-12T00:22:46.490Z,61.76
2019-04-12T00:25:17.520Z,61.76
2019-04-12T00:27:44.348Z,61.85
2019-04-12T00:30:13.566Z,61.82
2019-04-12T00:32:42.844Z,61.85
2019-04-12T00:35:12.085Z,61.99
2019-04-12T00:37:41.294Z,62.13
2019-04-12T00:40:10.525Z,62.12
2019-04-12T00:42:39.744Z,62.17
2019-04-12T00:45:08.968Z,62.17
2019-04-12T00:47:40.253Z,62.32
2019-04-12T00:50:11.280Z,62.54
2019-04-12T00:52:36.700Z,62.61
2019-04-12T00:55:06.266Z,62.66
2019-04-12T00:57:35.470Z,62.86
2019-04-12T01:00:05.391Z,62.93
2019-04-12T01:02:43.256Z,62.65
2019-04-12T01:05:20.521Z,62.86
2019-04-12T01:08:04.990Z,62.81
2019-04-12T01:10:37.987Z,62.76
2019-04-12T01:13:07.245Z,62.79
2019-04-12T01:15:36.438Z,62.78
2019-04-12T01:18:05.698Z,62.89
2019-04-12T01:20:36.498Z,62.92
2019-04-12T01:23:09.667Z,63.11
2019-04-12T01:25:34.592Z,63.11
2019-04-12T01:28:04.232Z,63.15
2019-04-12T01:30:33.446Z,63.16
2019-04-12T01:33:02.703Z,63.43
2019-04-12T01:35:31.988Z,63.24
2019-04-12T01:38:01.410Z,63.13
2019-04-12T01:40:30.646Z,62.96
2019-04-12T01:42:59.879Z,63.08
2019-04-12T01:45:29.096Z,63.16
2019-04-12T01:47:58.319Z,63.19
2019-04-12T01:50:27.528Z,63.03
2019-04-12T01:52:56.750Z,63.27
2019-04-12T01:55:25.952Z,63.21
2019-04-12T01:57:55.164Z,63.28
2019-04-12T02:00:24.390Z,63.55
2019-04-12T02:02:53.656Z,63.70
2019-04-12T02:05:22.966Z,63.77
2019-04-12T02:07:52.157Z,63.84
2019-04-12T02:10:21.448Z,63.76
2019-04-12T02:12:50.642Z,63.82
2019-04-12T02:15:19.973Z,63.93
2019-04-12T02:17:49.185Z,63.83
2019-04-12T02:20:18.496Z,64.12
2019-04-12T02:22:47.666Z,64.12
2019-04-12T02:25:21.503Z,64.35
2019-04-12T02:27:46.134Z,64.36
2019-04-12T02:30:15.369Z,64.47
2019-04-12T02:32:57.398Z,64.63
2019-04-12T02:35:39.938Z,64.87
2019-04-12T02:38:09.158Z,64.81
2019-04-12T02:40:38.903Z,64.81
2019-04-12T02:43:08.120Z,64.84
2019-04-12T02:45:38.892Z,65.04
2019-04-12T02:48:11.748Z,65.23
2019-04-12T02:50:49.120Z,65.45
2019-04-12T02:53:46.516Z,65.16
2019-04-12T02:56:43.600Z,65.16
2019-04-12T02:59:16.585Z,65.41
2019-04-12T03:01:46.243Z,65.11
2019-04-12T03:04:15.461Z,65.23
2019-04-12T03:06:44.669Z,65.12
2019-04-12T03:09:14.065Z,64.76
2019-04-12T03:11:43.306Z,64.76
2019-04-12T03:14:12.505Z,64.55
2019-04-12T03:16:41.817Z,64.53
2019-04-12T03:19:11.013Z,64.74
2019-04-12T03:21:40.293Z,64.86
2019-04-12T03:24:09.602Z,65.01
2019-04-12T03:26:38.861Z,64.74
2019-04-12T03:29:08.080Z,64.60
2019-04-12T03:31:37.334Z,64.75
2019-04-12T03:34:06.594Z,64.70
2019-04-12T03:36:35.866Z,64.75
2019-04-12T03:39:06.396Z,64.73
2019-04-12T03:41:35.943Z,64.92
2019-04-12T03:44:05.451Z,64.77
2019-04-12T03:46:34.702Z,64.80
2019-04-12T03:49:03.947Z,64.81
2019-04-12T03:51:33.196Z,65.02
2019-04-12T03:54:02.493Z,64.86
2019-04-12T03:56:31.769Z,64.78
2019-04-12T03:59:18.583Z,64.88
2019-04-12T04:01:53.009Z,64.99
2019-04-12T04:04:22.262Z,64.90
2019-04-12T04:06:51.499Z,64.81
2019-04-12T04:09:20.988Z,64.81
2019-04-12T04:11:50.227Z,64.85
2019-04-12T04:14:20.017Z,64.99
2019-04-12T04:16:55.055Z,64.89
2019-04-12T04:19:24.336Z,64.81
2019-04-12T04:21:54.782Z,64.95
2019-04-12T04:24:30.756Z,64.72
2019-04-12T04:27:19.072Z,64.61
2019-04-12T04:29:58.743Z,64.70
2019-04-12T04:32:53.297Z,64.79
2019-04-12T04:35:22.508Z,64.96
2019-04-12T04:37:51.767Z,64.87
2019-04-12T04:40:21.003Z,65.01
2019-04-12T04:42:50.254Z,65.13
2019-04-12T04:45:19.482Z,65.25
2019-04-12T04:47:48.718Z,65.43
2019-04-12T04:50:17.930Z,65.52
2019-04-12T04:52:47.280Z,65.64
2019-04-12T04:55:16.596Z,65.65
2019-04-12T04:57:45.806Z,65.90
2019-04-12T05:00:15.024Z,65.92
2019-04-12T05:02:44.294Z,65.97
2019-04-12T05:05:13.606Z,65.81
2019-04-12T05:07:42.822Z,66.12
2019-04-12T05:10:12.077Z,65.83
2019-04-12T05:12:41.290Z,65.74
2019-04-12T05:15:10.572Z,65.95
2019-04-12T05:17:40.102Z,65.79
2019-04-12T05:20:09.092Z,65.92
2019-04-12T05:22:38.328Z,65.77
2019-04-12T05:25:07.562Z,65.47
2019-04-12T05:27:36.906Z,65.65
2019-04-12T05:30:06.150Z,65.25
2019-04-12T05:32:35.346Z,65.18
2019-04-12T05:35:04.658Z,65.17
2019-04-12T05:37:33.870Z,65.08
2019-04-12T05:40:03.129Z,64.91
2019-04-12T05:42:32.329Z,64.90
2019-04-12T05:45:01.558Z,65.15
2019-04-12T05:47:52.674Z,64.98
2019-04-12T05:50:30.760Z,69.81
2019-04-12T05:53:01.079Z,67.05
2019-04-12T05:55:29.772Z,68.65
2019-04-12T05:58:13.229Z,65.63
2019-04-12T06:00:57.748Z,63.99
2019-04-12T06:03:28.108Z,61.56
2019-04-12T06:05:56.632Z,61.18
2019-04-12T06:08:26.010Z,61.27
2019-04-12T06:10:58.256Z,61.63
2019-04-12T06:13:24.694Z,61.98
2019-04-12T06:15:54.154Z,62.23
2019-04-12T06:18:23.817Z,62.71
2019-04-12T06:21:17.918Z,62.86
2019-04-12T06:23:47.347Z,63.28
2019-04-12T06:26:28.597Z,63.65
2019-04-12T06:28:57.894Z,63.90
2019-04-12T06:31:27.230Z,63.90
2019-04-12T06:33:56.473Z,63.77
2019-04-12T06:36:25.767Z,64.17
2019-04-12T06:38:54.925Z,64.58
2019-04-12T06:41:24.208Z,64.61
2019-04-12T06:43:53.396Z,64.77
2019-04-12T06:46:22.660Z,64.73
2019-04-12T06:48:52.002Z,64.83
2019-04-12T06:51:21.318Z,65.14
2019-04-12T06:53:50.566Z,65.18
2019-04-12T06:56:34.606Z,65.44
2019-04-12T06:59:03.947Z,65.46
2019-04-12T07:01:40.579Z,65.67
2019-04-12T07:04:23.887Z,65.62
2019-04-12T07:06:53.130Z,65.55
2019-04-12T07:09:22.362Z,65.83
2019-04-12T07:11:51.687Z,65.62
2019-04-12T07:14:20.954Z,65.63
2019-04-12T07:16:50.212Z,65.17
2019-04-12T07:19:19.552Z,65.34
2019-04-12T07:21:48.819Z,65.81
2019-04-12T07:24:18.046Z,65.53
2019-04-12T07:26:47.257Z,65.82
2019-04-12T07:29:16.495Z,65.69
2019-04-12T07:31:45.749Z,65.13
2019-04-12T07:34:15.006Z,65.23
2019-04-12T07:36:44.281Z,65.14
2019-04-12T07:39:13.558Z,65.45
2019-04-12T07:41:42.847Z,65.71
2019-04-12T07:44:12.166Z,65.28
2019-04-12T07:46:41.410Z,65.34
2019-04-12T07:49:10.670Z,65.42
2019-04-12T07:51:59.064Z,64.91
2019-04-12T07:54:43.604Z,64.39
2019-04-12T07:57:33.596Z,64.63
2019-04-12T08:00:17.630Z,64.18
2019-04-12T08:03:08.654Z,64.18
2019-04-12T08:05:42.150Z,64.27
2019-04-12T08:08:11.397Z,63.89
2019-04-12T08:10:40.704Z,63.79
2019-04-12T08:13:09.914Z,63.87
2019-04-12T08:15:39.088Z,63.50
2019-04-12T08:18:08.334Z,63.37
2019-04-12T08:20:37.551Z,63.72
2019-04-12T08:23:06.786Z,64.07
2019-04-12T08:25:36.032Z,63.43
2019-04-12T08:28:05.248Z,62.68
2019-04-12T08:30:34.446Z,62.68
2019-04-12T08:33:03.730Z,60.29
2019-04-12T08:35:32.992Z,61.65
2019-04-12T08:38:05.081Z,61.12
2019-04-12T08:40:31.739Z,60.52
2019-04-12T08:43:01.007Z,59.78
2019-04-12T08:45:30.261Z,59.78
2019-04-12T08:47:59.530Z,58.95
2019-04-12T08:50:28.745Z,56.84
2019-04-12T08:52:57.969Z,55.82
2019-04-12T08:55:27.275Z,56.25
2019-04-12T08:57:56.461Z,55.05
2019-04-12T09:00:25.688Z,54.81
2019-04-12T09:02:59.114Z,54.89
2019-04-12T09:05:32.559Z,55.17
2019-04-12T09:07:53.474Z,54.45
2019-04-12T09:10:22.727Z,54.45
2019-04-12T09:12:51.949Z,55.05
2019-04-12T09:15:21.151Z,54.53
2019-04-12T09:17:50.390Z,54.53
2019-04-12T09:20:38.768Z,52.34
2019-04-12T09:23:27.026Z,52.32
2019-04-12T09:25:59.404Z,50.75
2019-04-12T09:28:28.633Z,50.75
2019-04-12T09:30:57.837Z,49.53
2019-04-12T09:33:27.072Z,50.15
2019-04-12T09:35:56.295Z,50.28
2019-04-12T09:38:25.492Z,49.74
2019-04-12T09:40:56.350Z,50.01
2019-04-12T09:43:23.948Z,48.49
2019-04-12T09:45:53.190Z,47.52
2019-04-12T09:48:22.459Z,46.84
2019-04-12T09:50:51.777Z,46.59
2019-04-12T09:53:21.070Z,47.35
2019-04-12T09:55:50.322Z,47.21
2019-04-12T09:58:19.505Z,47.58
2019-04-12T10:00:48.779Z,47.96
2019-04-12T10:03:17.971Z,47.30
2019-04-12T10:05:47.277Z,47.61
2019-04-12T10:08:16.457Z,47.49
2019-04-12T10:10:45.724Z,47.77
2019-04-12T10:13:14.950Z,47.54
2019-04-12T10:15:44.206Z,48.20
2019-04-12T10:18:13.406Z,48.92
2019-04-12T10:20:42.659Z,49.63
2019-04-12T10:23:11.927Z,50.75
2019-04-12T10:25:41.129Z,51.17
2019-04-12T10:28:10.384Z,51.40
2019-04-12T10:30:39.585Z,51.40
2019-04-12T10:33:08.808Z,51.55
2019-04-12T10:35:38.063Z,51.08
2019-04-12T10:38:07.287Z,51.45
2019-04-12T10:40:36.542Z,51.11
2019-04-12T10:43:05.718Z,51.56
2019-04-12T10:45:52.415Z,51.52
2019-04-12T10:48:35.514Z,51.44
2019-04-12T10:51:27.371Z,51.35
2019-04-12T10:54:02.294Z,51.35
2019-04-12T10:56:31.549Z,50.64
2019-04-12T10:59:03.135Z,48.12
2019-04-12T11:01:30.030Z,47.74
2019-04-12T11:03:59.246Z,47.81
2019-04-12T11:06:30.555Z,48.09
2019-04-12T11:08:57.698Z,48.64
2019-04-12T11:11:26.954Z,48.28
2019-04-12T11:13:56.234Z,48.34
2019-04-12T11:16:27.164Z,48.31
2019-04-12T11:18:54.778Z,48.09
2019-04-12T11:21:24.054Z,48.69
2019-04-12T11:23:53.340Z,48.31
2019-04-12T11:26:22.583Z,46.30
2019-04-12T11:28:51.816Z,45.49
2019-04-12T11:31:21.025Z,44.83
2019-04-12T11:33:50.337Z,45.40
2019-04-12T11:36:19.556Z,45.33
2019-04-12T11:38:48.839Z,45.05
2019-04-12T11:41:18.149Z,44.91
2019-04-12T11:43:47.453Z,45.24
2019-04-12T11:46:16.761Z,45.44
2019-04-12T11:48:46.048Z,46.59
2019-04-12T11:51:15.264Z,47.83
2019-04-12T11:53:44.504Z,48.58
2019-04-12T11:56:13.696Z,51.72
2019-04-12T11:58:48.306Z,51.72
2019-04-12T12:01:40.174Z,53.24
2019-04-12T12:04:37.452Z,53.78
2019-04-12T12:07:25.786Z,53.93
2019-04-12T12:10:32.172Z,54.08
2019-04-12T12:13:19.020Z,54.01
2019-04-12T12:16:15.156Z,52.11
2019-04-12T12:18:44.369Z,51.80
2019-04-12T12:21:13.586Z,50.89
2019-04-12T12:23:42.823Z,50.89
2019-04-12T12:26:12.031Z,49.47
2019-04-12T12:28:41.325Z,47.88
2019-04-12T12:31:10.555Z,47.33
2019-04-12T12:33:39.798Z,47.76
2019-04-12T12:36:09.010Z,47.10
2019-04-12T12:38:38.317Z,46.27
2019-04-12T12:41:07.560Z,45.19
2019-04-12T12:43:36.786Z,44.38
2019-04-12T12:46:06.005Z,43.79
2019-04-12T12:48:35.276Z,42.81
2019-04-12T12:51:04.512Z,42.86
2019-04-12T12:53:33.818Z,42.37
2019-04-12T12:56:03.067Z,42.00
2019-04-12T12:58:32.341Z,41.76
2019-04-12T13:01:01.541Z,41.30
2019-04-12T13:03:30.772Z,42.01
2019-04-12T13:06:02.135Z,42.71
2019-04-12T13:08:29.315Z,42.67
2019-04-12T13:10:58.559Z,42.35
2019-04-12T13:13:27.810Z,42.59
2019-04-12T13:15:57.036Z,42.84
2019-04-12T13:18:26.257Z,43.23
2019-04-12T13:20:55.491Z,43.42
2019-04-12T13:23:24.751Z,43.86
2019-04-12T13:25:53.929Z,43.68
2019-04-12T13:28:23.324Z,43.12
2019-04-12T13:31:23.931Z,41.43
2019-04-12T13:34:15.689Z,40.62
2019-04-12T13:36:50.442Z,41.23
2019-04-12T13:39:37.522Z,40.99
2019-04-12T13:42:08.898Z,41.07
2019-04-12T13:44:38.099Z,41.05
2019-04-12T13:47:07.305Z,41.69
2019-04-12T13:49:36.519Z,41.26
2019-04-12T13:52:05.735Z,41.56
2019-04-12T13:54:34.982Z,41.65
2019-04-12T13:57:04.231Z,42.31
2019-04-12T13:59:33.485Z,43.18
2019-04-12T14:02:02.698Z,44.00
2019-04-12T14:04:31.977Z,44.52
2019-04-12T14:07:01.222Z,45.47
2019-04-12T14:09:30.421Z,47.34
2019-04-12T14:11:59.699Z,48.92
2019-04-12T14:14:28.945Z,50.66
2019-04-12T14:16:58.250Z,51.90
2019-04-12T14:19:27.577Z,52.63
2019-04-12T14:21:56.856Z,53.65
2019-04-12T14:24:26.101Z,53.65
2019-04-12T14:26:55.321Z,53.76
2019-04-12T14:29:24.540Z,53.29
2019-04-12T14:31:53.762Z,53.02
2019-04-12T14:34:48.065Z,51.21
2019-04-12T14:37:25.896Z,50.49
2019-04-12T14:39:55.181Z,49.50
2019-04-12T14:42:24.391Z,49.16
2019-04-12T14:45:15.435Z,48.11
2019-04-12T14:47:46.333Z,48.11
2019-04-12T14:50:15.599Z,46.28
2019-04-12T14:52:44.860Z,44.36
2019-04-12T14:55:14.030Z,44.86
2019-04-12T14:57:43.287Z,44.70
2019-04-12T15:00:12.520Z,42.86
2019-04-12T15:02:41.783Z,42.69
2019-04-12T15:05:11.124Z,43.38
2019-04-12T15:07:40.487Z,43.23
2019-04-12T15:10:09.712Z,43.88
2019-04-12T15:12:38.912Z,43.59
2019-04-12T15:15:08.133Z,43.58
2019-04-12T15:17:37.374Z,43.31
2019-04-12T15:20:06.720Z,42.96
2019-04-12T15:22:35.983Z,43.23
2019-04-12T15:25:05.538Z,43.49
2019-04-12T15:27:34.794Z,43.97
2019-04-12T15:30:04.523Z,43.94
2019-04-12T15:32:33.789Z,44.47
2019-04-12T15:35:03.115Z,45.84
2019-04-12T15:37:32.375Z,45.84
2019-04-12T15:40:01.617Z,45.66
2019-04-12T15:42:30.863Z,45.84
2019-04-12T15:45:00.113Z,46.27
2019-04-12T15:47:29.324Z,45.79
2019-04-12T15:49:58.571Z,46.34
2019-04-12T15:52:27.848Z,47.32
2019-04-12T15:54:57.466Z,48.01
2019-04-12T15:57:26.839Z,48.28
2019-04-12T15:59:56.060Z,48.61
2019-04-12T16:02:25.298Z,48.71
2019-04-12T16:04:54.521Z,50.84
2019-04-12T16:07:32.638Z,57.13
2019-04-12T16:10:01.938Z,57.13
2019-04-12T16:12:51.519Z,59.19
2019-04-12T16:16:03.388Z,61.49
2019-04-12T16:18:32.635Z,63.06
2019-04-12T16:21:01.818Z,63.73
2019-04-12T16:23:31.037Z,64.40
2019-04-12T16:26:00.285Z,64.94
2019-04-12T16:28:36.121Z,64.85
2019-04-12T16:31:27.159Z,65.15
2019-04-12T16:34:14.120Z,64.85
2019-04-12T16:36:47.554Z,64.61
2019-04-12T16:39:19.373Z,64.63
2019-04-12T16:41:48.585Z,64.23
2019-04-12T16:44:17.775Z,63.92
2019-04-12T16:46:47.023Z,64.30
2019-04-12T16:49:16.266Z,64.98
2019-04-12T16:51:45.537Z,65.58
2019-04-12T16:54:14.774Z,65.92
2019-04-12T16:56:43.987Z,66.40
2019-04-12T16:59:13.348Z,66.62
2019-04-12T17:01:42.563Z,66.63
2019-04-12T17:04:12.127Z,67.16
2019-04-12T17:06:41.368Z,67.39
2019-04-12T17:09:10.586Z,67.30
2019-04-12T17:11:39.827Z,67.77
2019-04-12T17:14:09.118Z,68.09
2019-04-12T17:16:38.325Z,68.32
2019-04-12T17:19:07.585Z,68.65
2019-04-12T17:21:36.825Z,68.73
2019-04-12T17:24:06.059Z,68.90
2019-04-12T17:26:35.261Z,69.27
2019-04-12T17:29:04.521Z,69.56
2019-04-12T17:31:33.757Z,69.93
2019-04-12T17:34:03.014Z,70.18
2019-04-12T17:36:32.224Z,70.52
2019-04-12T17:39:01.479Z,70.72
2019-04-12T17:41:30.700Z,70.20
2019-04-12T17:43:59.961Z,69.79
2019-04-12T17:46:29.171Z,69.24
2019-04-12T17:49:17.567Z,68.96
2019-04-12T17:51:50.192Z,68.04
2019-04-12T17:54:38.542Z,67.84
2019-04-12T17:57:07.809Z,66.95
2019-04-12T17:59:37.028Z,66.27
2019-04-12T18:02:13.209Z,65.72
2019-04-12T18:05:01.379Z,65.49
2019-04-12T18:07:30.784Z,65.29
2019-04-12T18:10:00.036Z,64.74
2019-04-12T18:12:29.240Z,64.58
2019-04-12T18:14:58.532Z,64.01
2019-04-12T18:17:27.732Z,63.77
2019-04-12T18:19:56.977Z,63.31
2019-04-12T18:22:26.196Z,63.11
2019-04-12T18:24:55.472Z,63.26
2019-04-12T18:27:24.695Z,63.03
2019-04-12T18:29:54.028Z,62.84
2019-04-12T18:32:23.321Z,62.98
2019-04-12T18:34:52.547Z,63.09
2019-04-12T18:37:21.803Z,62.64
2019-04-12T18:39:51.027Z,62.36
2019-04-12T18:42:20.246Z,62.24
2019-04-12T18:44:49.597Z,62.32
2019-04-12T18:47:18.903Z,62.22
2019-04-12T18:49:48.142Z,61.98
2019-04-12T18:52:17.426Z,62.16
2019-04-12T18:54:46.724Z,62.44
2019-04-12T18:57:15.963Z,62.80
2019-04-12T18:59:45.203Z,62.57
2019-04-12T19:02:26.318Z,62.76
2019-04-12T19:04:43.699Z,62.78
2019-04-12T19:07:15.599Z,63.02
2019-04-12T19:09:44.910Z,63.18
2019-04-12T19:12:14.135Z,63.59
2019-04-12T19:14:43.381Z,63.78
2019-04-12T19:17:17.829Z,63.72
2019-04-12T19:19:47.077Z,63.82
2019-04-12T19:22:16.303Z,63.80
2019-04-12T19:24:45.554Z,64.07
2019-04-12T19:27:14.797Z,64.06
2019-04-12T19:29:44.024Z,64.04
2019-04-12T19:32:41.390Z,63.99
2019-04-12T19:35:28.418Z,63.86
2019-04-12T19:38:22.618Z,64.08
2019-04-12T19:40:52.652Z,64.02
2019-04-12T19:43:21.855Z,63.87
2019-04-12T19:45:51.122Z,63.90
2019-04-12T19:48:20.464Z,63.53
2019-04-12T19:50:49.718Z,63.52
2019-04-12T19:53:19.053Z,63.49
2019-04-12T19:55:48.536Z,64.01
2019-04-12T19:58:17.779Z,64.25
2019-04-12T20:00:47.036Z,64.54
2019-04-12T20:03:16.265Z,64.83
2019-04-12T20:05:45.519Z,65.06
2019-04-12T20:08:14.746Z,64.85
2019-04-12T20:10:44.067Z,64.86
2019-04-12T20:13:13.329Z,65.01
2019-04-12T20:15:42.578Z,65.10
2019-04-12T20:18:11.820Z,65.10
2019-04-12T20:20:41.485Z,65.42
2019-04-12T20:23:10.776Z,65.71
2019-04-12T20:25:40.054Z,66.24
2019-04-12T20:28:09.287Z,66.44
2019-04-12T20:30:38.517Z,66.76
2019-04-12T20:33:07.736Z,67.02
2019-04-12T20:35:37.005Z,67.28
2019-04-12T20:38:06.250Z,67.51
2019-04-12T20:40:35.441Z,67.75
2019-04-12T20:43:04.675Z,67.99
2019-04-12T20:45:33.979Z,68.06
2019-04-12T20:48:03.231Z,68.30
2019-04-12T20:50:32.491Z,68.47
2019-04-12T20:53:02.102Z,68.58
2019-04-12T20:55:31.335Z,68.88
2019-04-12T20:58:00.618Z,69.08
2019-04-12T21:00:29.835Z,69.20
2019-04-12T21:02:59.115Z,69.47
2019-04-12T21:05:28.446Z,69.53
2019-04-12T21:07:57.595Z,69.88
2019-04-12T21:10:26.822Z,70.06
2019-04-12T21:12:56.075Z,70.06
2019-04-12T21:15:25.394Z,70.11
2019-04-12T21:17:54.643Z,70.18
2019-04-12T21:20:23.887Z,70.21
2019-04-12T21:22:53.139Z,70.35
2019-04-12T21:25:22.389Z,70.59
2019-04-12T21:27:51.631Z,71.05
2019-04-12T21:30:25.801Z,71.32
2019-04-12T21:32:53.087Z,71.80
2019-04-12T21:35:19.434Z,72.24
2019-04-12T21:37:48.716Z,72.83
2019-04-12T21:40:17.935Z,73.25
2019-04-12T21:42:47.208Z,73.69
2019-04-12T21:45:17.824Z,74.09
2019-04-12T21:47:45.649Z,74.62
2019-04-12T21:50:14.906Z,75.22
2019-04-12T21:52:44.259Z,75.59
2019-04-12T21:55:13.589Z,76.06
2019-04-12T21:57:42.907Z,76.04
2019-04-12T22:00:12.589Z,76.09
2019-04-12T22:02:41.801Z,76.38
2019-04-12T22:05:11.203Z,76.51
2019-04-12T22:07:40.445Z,76.59
2019-04-12T22:10:09.645Z,76.48
2019-04-12T22:12:38.899Z,76.37
2019-04-12T22:15:08.138Z,76.27
2019-04-12T22:17:37.359Z,76.32
2019-04-12T22:20:06.751Z,76.29
2019-04-12T22:22:36.045Z,76.35
2019-04-12T22:25:05.317Z,76.31
2019-04-12T22:27:34.591Z,76.31
2019-04-12T22:30:04.027Z,76.31
2019-04-12T22:32:33.326Z,76.42
2019-04-12T22:35:02.545Z,76.50
2019-04-12T22:37:31.867Z,76.68
2019-04-12T22:40:01.117Z,76.75
2019-04-12T22:42:30.355Z,77.08
2019-04-12T22:44:59.639Z,77.18
2019-04-12T22:47:28.855Z,77.39
2019-04-12T22:49:58.086Z,77.49
2019-04-12T22:52:27.355Z,77.60
2019-04-12T22:54:56.579Z,77.71
2019-04-12T22:57:25.835Z,77.84
2019-04-12T22:59:55.073Z,78.03
2019-04-12T23:02:24.309Z,78.31
2019-04-12T23:04:53.529Z,78.32
2019-04-12T23:07:22.761Z,78.33
2019-04-12T23:09:51.988Z,78.56
2019-04-12T23:12:21.230Z,78.73
2019-04-12T23:14:50.466Z,78.82
2019-04-12T23:17:19.659Z,78.84
2019-04-12T23:19:48.894Z,79.27
2019-04-12T23:22:18.127Z,79.38
2019-04-12T23:24:47.354Z,79.36
2019-04-12T23:27:16.597Z,79.37
2019-04-12T23:29:45.804Z,79.43
2019-04-12T23:32:15.523Z,79.46
2019-04-12T23:35:12.747Z,79.65
2019-04-12T23:37:43.852Z,79.58
2019-04-12T23:40:13.071Z,79.88
2019-04-12T23:42:42.290Z,79.95
2019-04-12T23:45:11.551Z,79.97
2019-04-12T23:47:40.811Z,80.15
2019-04-12T23:50:10.050Z,80.02
2019-04-12T23:52:39.261Z,80.16
2019-04-12T23:55:08.509Z,80.41
2019-04-12T23:57:37.794Z,80.42
